Terminal Aerodrome Forecast
Issued by NWS Wilmington, OH

Current Version | Previous Version | Graphics & Text | Print | Product List | Glossary On
Versions: 1 2 3 4 5 6 7 8 9 10 11 12 13 14 15 16
000
FTUS41 KILN 221120
TAFDAY
TAF
KDAY 221120Z 2212/2312 21008KT P6SM BKN250
     FM221400 22009KT P6SM VCTS BKN060CB
     FM221800 24014G23KT P6SM SHRA OVC060
      TEMPO 2218/2219 4SM TSRA OVC025CB
     FM222000 25013G23KT P6SM VCSH BKN050
     FM222300 29009G16KT P6SM SCT045
     FM230200 32008KT P6SM SCT130=

USA.gov is the U.S. government's official web portal to all federal, state and local government web resources and services.